Time;durP1;ratioP1;P1;durP2;ratioP2;P2;SDS_P1;SDS_P2;PMS_P1;PMS_P2;Temp;Humidity;BMP_temperature;BMP_pressure;BME280_temperature;BME280_humidity;BME280_pressure;Samples;Min_cycle;Max_cycle;Signal;HPM_P1;HPM_P2
2023/05/31 00:01:45;;;;;;;3.67;2.40;;;17.70;69.70;;;;;;5075511;28;20216;-76
2023/05/31 00:04:11;;;;;;;5.17;2.70;;;17.90;69.50;;;;;;5075752;28;20158;-75
2023/05/31 00:06:36;;;;;;;7.53;2.43;;;17.90;69.80;;;;;;5075671;28;20177;-75
2023/05/31 00:09:02;;;;;;;5.03;2.73;;;17.70;69.70;;;;;;5075246;28;20644;-75
2023/05/31 00:11:28;;;;;;;3.20;2.23;;;17.60;70.30;;;;;;5075537;28;20208;-75
2023/05/31 00:13:54;;;;;;;5.00;2.73;;;17.70;70.90;;;;;;5075670;28;20933;-75
2023/05/31 00:16:19;;;;;;;3.77;2.10;;;17.60;70.60;;;;;;5075247;28;20177;-75
2023/05/31 00:18:46;;;;;;;4.37;2.90;;;17.70;70.40;;;;;;5075464;28;20743;-75
2023/05/31 00:21:11;;;;;;;3.40;2.30;;;17.70;69.70;;;;;;5075598;28;20197;-75
2023/05/31 00:23:37;;;;;;;3.70;2.40;;;17.70;69.30;;;;;;5075480;28;20400;-75
2023/05/31 00:26:03;;;;;;;3.53;2.20;;;17.70;69.50;;;;;;5075443;28;20162;-76
2023/05/31 00:28:29;;;;;;;2.73;2.43;;;17.60;70.70;;;;;;5075929;28;20169;-74
2023/05/31 00:30:54;;;;;;;5.13;2.20;;;17.40;71.00;;;;;;5075298;28;20264;-75
2023/05/31 00:33:20;;;;;;;3.47;2.63;;;17.40;71.00;;;;;;5075216;28;20436;-75
2023/05/31 00:35:45;;;;;;;3.40;2.70;;;17.30;71.50;;;;;;5075468;28;20671;-75
2023/05/31 00:38:11;;;;;;;3.93;2.80;;;17.40;71.10;;;;;;5075397;28;20211;-75
2023/05/31 00:40:36;;;;;;;3.80;2.40;;;17.40;71.50;;;;;;5075376;28;20252;-75
2023/05/31 00:43:02;;;;;;;3.33;2.47;;;17.50;71.00;;;;;;5057322;28;20644;-75
2023/05/31 00:45:28;;;;;;;3.73;2.20;;;17.50;70.90;;;;;;5075295;28;20162;-75
2023/05/31 00:47:55;;;;;;;9.67;2.27;;;17.50;71.40;;;;;;5074489;28;20181;-75
2023/05/31 00:50:21;;;;;;;3.73;2.50;;;17.40;70.60;;;;;;5075423;28;20473;-75
2023/05/31 00:52:49;;;;;;;3.63;2.13;;;17.30;70.60;;;;;;5075031;28;20926;-75
2023/05/31 00:55:16;;;;;;;4.00;2.40;;;17.30;70.00;;;;;;5075449;28;20416;-74
2023/05/31 00:57:42;;;;;;;4.13;2.53;;;17.30;71.10;;;;;;5075265;28;20434;-74
2023/05/31 01:00:08;;;;;;;5.80;2.50;;;17.40;71.00;;;;;;5076234;28;20460;-74
2023/05/31 01:02:37;;;;;;;4.20;2.77;;;17.30;70.60;;;;;;5076693;28;20190;-75
2023/05/31 01:05:07;;;;;;;4.63;2.60;;;17.20;70.80;;;;;;5076925;28;20404;-75
2023/05/31 01:07:35;;;;;;;2.73;2.30;;;17.10;69.80;;;;;;5057490;28;20411;-74
2023/05/31 01:10:02;;;;;;;3.50;2.20;;;17.20;71.10;;;;;;5074721;28;20495;-75
2023/05/31 01:12:48;;;;;;;3.73;2.47;;;17.30;71.30;;;;;;5074610;28;20423;-75
2023/05/31 01:15:19;;;;;;;4.47;2.40;;;17.20;71.10;;;;;;5074497;28;20490;-74
2023/05/31 01:18:03;;;;;;;2.70;2.27;;;17.20;71.70;;;;;;5056257;28;20428;-74
2023/05/31 01:20:34;;;;;;;2.60;1.97;;;16.90;71.70;;;;;;5074988;28;20546;-75
2023/05/31 01:23:22;;;;;;;5.37;2.27;;;16.90;72.50;;;;;;5074593;28;20614;-74
2023/05/31 01:26:36;;;;;;;4.83;2.40;;;17.00;72.70;;;;;;5074615;28;20392;-74
2023/05/31 01:29:05;;;;;;;3.73;2.30;;;16.80;72.90;;;;;;4992849;28;20416;-74
2023/05/31 01:31:33;;;;;;;3.50;2.10;;;16.80;74.30;;;;;;4992778;28;20955;-75
2023/05/31 01:34:00;;;;;;;3.83;2.37;;;16.70;74.00;;;;;;5034286;28;20843;-74
2023/05/31 01:36:25;;;;;;;3.83;2.40;;;16.60;74.80;;;;;;5056271;28;20427;-74
2023/05/31 01:38:51;;;;;;;5.17;2.30;;;16.40;74.40;;;;;;5074249;28;20447;-74
2023/05/31 01:41:17;;;;;;;2.97;1.83;;;16.30;74.80;;;;;;5072614;28;20205;-75
2023/05/31 01:43:44;;;;;;;3.50;2.47;;;16.40;75.50;;;;;;5074036;28;20170;-75
2023/05/31 01:46:14;;;;;;;3.07;2.27;;;16.30;75.70;;;;;;5074437;28;20406;-75
2023/05/31 01:48:41;;;;;;;3.23;1.93;;;16.30;75.40;;;;;;5055893;28;20422;-75
2023/05/31 01:51:08;;;;;;;6.10;3.70;;;16.30;76.60;;;;;;5055877;28;20435;-75
2023/05/31 01:53:34;;;;;;;3.70;2.70;;;16.30;76.80;;;;;;5055838;28;20407;-75
2023/05/31 01:56:01;;;;;;;5.47;2.80;;;16.30;76.40;;;;;;5073811;28;20780;-75
2023/05/31 01:58:29;;;;;;;3.23;2.30;;;16.20;76.60;;;;;;5073651;28;20535;-75
2023/05/31 02:00:55;;;;;;;3.60;2.37;;;16.20;76.20;;;;;;5073685;28;20423;-75
2023/05/31 02:03:21;;;;;;;4.40;2.40;;;16.20;75.90;;;;;;5073315;28;20407;-75
2023/05/31 02:05:57;;;;;;;2.80;2.07;;;16.20;76.80;;;;;;5055596;28;20408;-75
2023/05/31 02:08:24;;;;;;;2.50;2.30;;;16.10;76.50;;;;;;5073495;28;20240;-75
2023/05/31 02:10:50;;;;;;;3.63;2.17;;;16.10;77.20;;;;;;5072953;28;20392;-75
2023/05/31 02:13:17;;;;;;;4.20;2.10;;;16.10;77.70;;;;;;5073595;28;20738;-75
2023/05/31 02:15:43;;;;;;;2.93;2.13;;;16.00;77.70;;;;;;5055476;28;20400;-75
2023/05/31 02:18:08;;;;;;;5.20;2.30;;;15.90;77.70;;;;;;5072802;28;20774;-75
2023/05/31 02:20:34;;;;;;;5.47;2.83;;;15.80;77.90;;;;;;5072325;28;20239;-75
2023/05/31 02:23:00;;;;;;;3.50;2.67;;;15.80;78.50;;;;;;5073108;28;20224;-75
2023/05/31 02:25:26;;;;;;;5.70;2.63;;;15.80;78.20;;;;;;5055172;28;20626;-75
2023/05/31 02:27:52;;;;;;;3.93;2.00;;;15.70;79.10;;;;;;5073168;28;20239;-75
2023/05/31 02:30:17;;;;;;;6.53;2.73;;;15.70;78.70;;;;;;5071760;28;20418;-75
2023/05/31 02:32:43;;;;;;;3.80;2.37;;;15.70;79.40;;;;;;5072582;28;20747;-75
2023/05/31 02:35:10;;;;;;;11.90;3.50;;;15.60;79.00;;;;;;5073271;28;20639;-75
2023/05/31 02:37:38;;;;;;;3.00;2.23;;;15.40;79.00;;;;;;5073148;28;20169;-75
2023/05/31 02:40:07;;;;;;;3.57;2.20;;;15.50;79.60;;;;;;5054777;28;20863;-75
2023/05/31 02:42:37;;;;;;;3.00;2.70;;;15.60;79.60;;;;;;5071541;28;20454;-75
2023/05/31 02:45:03;;;;;;;5.00;2.13;;;15.40;79.20;;;;;;5072824;28;20421;-75
2023/05/31 02:47:29;;;;;;;2.90;2.43;;;15.50;80.30;;;;;;5072326;28;20431;-75
2023/05/31 02:49:55;;;;;;;5.00;2.43;;;15.40;79.70;;;;;;5054733;28;20933;-75
2023/05/31 02:52:23;;;;;;;2.90;1.90;;;15.30;80.70;;;;;;5072340;28;20207;-75
2023/05/31 02:54:49;;;;;;;3.47;2.10;;;15.20;80.70;;;;;;5072700;28;20189;-75
2023/05/31 02:57:15;;;;;;;3.27;2.13;;;15.10;81.50;;;;;;5054669;28;20421;-75
2023/05/31 02:59:42;;;;;;;4.83;2.60;;;15.10;81.30;;;;;;5072047;28;20526;-75
2023/05/31 03:02:08;;;;;;;3.90;2.33;;;15.10;82.00;;;;;;5072176;28;20193;-75
2023/05/31 03:04:33;;;;;;;3.60;2.40;;;15.10;81.70;;;;;;5072996;28;20406;-75
2023/05/31 03:06:59;;;;;;;4.23;2.60;;;15.10;82.60;;;;;;5073237;28;20176;-75
2023/05/31 03:09:25;;;;;;;4.60;2.57;;;15.10;82.40;;;;;;5072686;28;20170;-75
2023/05/31 03:11:50;;;;;;;3.00;2.10;;;15.20;82.30;;;;;;5072499;28;20283;-75
2023/05/31 03:14:16;;;;;;;3.10;2.80;;;15.10;82.40;;;;;;5072464;28;20176;-74
2023/05/31 03:16:43;;;;;;;2.67;2.40;;;15.10;83.50;;;;;;5071948;28;20179;-75
2023/05/31 03:19:08;;;;;;;3.07;2.03;;;15.10;83.70;;;;;;5072531;28;20200;-75
2023/05/31 03:21:34;;;;;;;4.00;2.17;;;15.00;83.80;;;;;;5072811;28;20474;-75
2023/05/31 03:23:59;;;;;;;4.33;2.97;;;15.00;84.20;;;;;;5073062;28;20179;-75
2023/05/31 03:26:25;;;;;;;5.83;2.90;;;15.00;84.70;;;;;;5072673;28;20637;-75
2023/05/31 03:28:51;;;;;;;5.30;2.90;;;15.00;84.60;;;;;;5072412;28;20187;-75
2023/05/31 03:31:18;;;;;;;5.07;2.47;;;15.10;84.50;;;;;;5073248;28;20423;-74
2023/05/31 03:33:44;;;;;;;2.53;1.93;;;15.00;85.00;;;;;;5076253;28;20407;-75
2023/05/31 03:36:10;;;;;;;4.40;2.03;;;15.00;85.20;;;;;;5076572;28;20566;-75
2023/05/31 03:38:36;;;;;;;5.07;2.77;;;14.90;85.50;;;;;;5058350;28;20458;-75
2023/05/31 03:41:01;;;;;;;3.43;2.57;;;14.90;86.60;;;;;;5076432;28;20233;-75
2023/05/31 03:43:27;;;;;;;3.20;2.00;;;14.90;86.60;;;;;;5076877;28;20595;-75
2023/05/31 03:45:52;;;;;;;3.50;2.10;;;14.90;87.10;;;;;;5076458;28;20536;-74
2023/05/31 03:48:18;;;;;;;4.70;2.40;;;15.00;86.60;;;;;;5075684;28;20183;-74
2023/05/31 03:50:44;;;;;;;5.23;2.57;;;15.00;87.00;;;;;;5057974;28;20613;-75
2023/05/31 03:53:10;;;;;;;3.80;2.53;;;15.00;87.60;;;;;;5076266;28;20168;-75
2023/05/31 03:55:36;;;;;;;3.37;2.20;;;14.90;87.00;;;;;;5076593;28;20166;-75
2023/05/31 03:58:02;;;;;;;3.77;2.80;;;14.80;87.40;;;;;;5076406;28;20170;-74
2023/05/31 04:00:28;;;;;;;2.80;2.50;;;14.80;88.40;;;;;;5075923;28;20529;-74
2023/05/31 04:02:54;;;;;;;3.53;2.30;;;14.90;88.00;;;;;;5075455;28;20420;-75
2023/05/31 04:05:20;;;;;;;4.00;2.47;;;15.00;88.50;;;;;;5075552;28;20410;-75
2023/05/31 04:07:45;;;;;;;2.67;2.10;;;14.80;88.20;;;;;;5075710;28;20444;-75
2023/05/31 04:10:11;;;;;;;4.77;2.77;;;14.90;89.40;;;;;;5075735;28;20599;-75
2023/05/31 04:12:37;;;;;;;2.50;2.23;;;14.80;90.10;;;;;;5075655;28;20189;-74
2023/05/31 04:15:02;;;;;;;4.17;2.70;;;14.90;90.20;;;;;;5075585;28;20200;-74
2023/05/31 04:17:28;;;;;;;2.90;2.60;;;14.90;90.60;;;;;;5075437;28;20162;-75
2023/05/31 04:19:53;;;;;;;4.37;2.47;;;15.00;90.50;;;;;;5075958;28;20201;-75
2023/05/31 04:22:20;;;;;;;3.00;2.13;;;14.90;90.50;;;;;;5075491;28;20193;-74
2023/05/31 04:24:46;;;;;;;3.40;2.70;;;15.00;91.30;;;;;;5058278;28;20263;-74
2023/05/31 04:27:18;;;;;;;3.23;2.43;;;15.10;91.20;;;;;;5076404;28;20487;-74
2023/05/31 04:29:45;;;;;;;5.33;2.50;;;15.20;91.40;;;;;;5077702;28;20672;-74
2023/05/31 04:32:14;;;;;;;3.30;2.50;;;15.20;92.00;;;;;;5078199;28;20484;-74
2023/05/31 04:34:40;;;;;;;4.50;2.60;;;15.10;91.70;;;;;;5075829;28;20860;-74
2023/05/31 04:37:07;;;;;;;6.50;2.93;;;15.10;91.70;;;;;;5057836;28;20439;-74
2023/05/31 04:39:34;;;;;;;5.30;2.67;;;15.20;92.60;;;;;;5075717;28;20441;-75
2023/05/31 04:41:59;;;;;;;3.47;2.20;;;15.30;92.50;;;;;;5057061;28;20449;-75
2023/05/31 04:44:26;;;;;;;3.70;2.27;;;15.40;92.60;;;;;;5074585;28;20402;-75
2023/05/31 04:46:51;;;;;;;3.97;2.80;;;15.30;92.30;;;;;;5075479;28;20171;-75
2023/05/31 04:49:18;;;;;;;4.70;2.60;;;15.30;92.80;;;;;;5075111;28;20778;-75
2023/05/31 04:51:44;;;;;;;3.00;2.63;;;15.30;93.20;;;;;;5075072;28;20192;-75
2023/05/31 04:54:10;;;;;;;5.07;2.90;;;15.30;93.70;;;;;;5075040;28;20501;-75
2023/05/31 04:56:36;;;;;;;3.50;2.43;;;15.40;93.70;;;;;;5074638;28;20439;-74
2023/05/31 04:59:01;;;;;;;3.43;3.10;;;15.40;94.30;;;;;;5074769;28;20189;-74
2023/05/31 05:01:28;;;;;;;5.47;2.60;;;15.40;94.10;;;;;;5056449;28;20207;-75
2023/05/31 05:03:53;;;;;;;4.00;2.50;;;15.40;94.20;;;;;;5056664;28;20525;-75
2023/05/31 05:06:19;;;;;;;2.80;2.43;;;15.50;94.20;;;;;;5074588;28;20409;-75
2023/05/31 05:08:47;;;;;;;4.60;2.60;;;15.50;94.20;;;;;;5075114;28;20172;-75
2023/05/31 05:11:13;;;;;;;4.27;2.47;;;15.70;94.50;;;;;;5074689;28;20282;-75
2023/05/31 05:13:39;;;;;;;6.33;3.20;;;15.70;94.10;;;;;;5074606;28;20444;-75
2023/05/31 05:16:05;;;;;;;4.07;2.50;;;15.90;94.30;;;;;;5056454;28;20227;-75
2023/05/31 05:18:31;;;;;;;3.23;2.90;;;16.00;94.00;;;;;;5055895;28;20267;-75
2023/05/31 05:20:57;;;;;;;3.77;2.40;;;16.20;94.10;;;;;;5074282;28;20178;-75
2023/05/31 05:23:23;;;;;;;3.17;2.37;;;16.30;93.90;;;;;;5074583;28;20397;-74
2023/05/31 05:25:49;;;;;;;4.80;2.53;;;16.50;92.70;;;;;;5074335;28;20416;-74
2023/05/31 05:28:15;;;;;;;7.10;2.83;;;16.70;92.80;;;;;;5074202;28;20392;-75
2023/05/31 05:30:40;;;;;;;3.00;2.17;;;16.80;90.50;;;;;;5074979;28;20161;-75
2023/05/31 05:33:06;;;;;;;4.83;2.80;;;17.00;92.30;;;;;;5074450;28;20172;-75
2023/05/31 05:35:32;;;;;;;3.70;2.57;;;17.10;90.10;;;;;;5056131;28;20206;-74
2023/05/31 05:37:59;;;;;;;5.00;2.47;;;17.20;90.30;;;;;;5056049;28;20546;-75
2023/05/31 05:40:25;;;;;;;3.80;2.40;;;17.00;85.70;;;;;;5073973;28;20443;-75
2023/05/31 05:42:50;;;;;;;3.23;2.50;;;17.00;85.20;;;;;;5074835;28;20527;-75
2023/05/31 05:45:16;;;;;;;4.50;2.63;;;17.20;89.50;;;;;;5075501;28;20826;-75
2023/05/31 05:47:44;;;;;;;5.63;3.13;;;17.50;87.80;;;;;;5074916;28;20154;-74
2023/05/31 05:50:11;;;;;;;3.13;2.33;;;17.40;84.30;;;;;;5075731;28;20727;-75
2023/05/31 05:52:37;;;;;;;3.77;3.07;;;17.60;81.70;;;;;;5075353;28;20522;-75
2023/05/31 05:55:03;;;;;;;2.50;2.27;;;17.60;81.80;;;;;;5075732;28;20440;-74
2023/05/31 05:57:29;;;;;;;3.53;2.47;;;17.60;82.30;;;;;;5076366;28;20405;-75
2023/05/31 05:59:56;;;;;;;5.03;2.50;;;17.70;80.80;;;;;;5073972;28;20841;-74
2023/05/31 06:02:21;;;;;;;3.97;2.60;;;17.60;81.80;;;;;;5073742;28;20691;-75
2023/05/31 06:04:48;;;;;;;5.90;2.90;;;17.60;81.20;;;;;;5073861;28;20427;-75
2023/05/31 06:07:14;;;;;;;7.23;2.90;;;17.40;84.60;;;;;;5055895;28;20170;-74
2023/05/31 06:09:39;;;;;;;5.23;3.13;;;17.30;80.40;;;;;;5055861;28;20469;-75
2023/05/31 06:12:06;;;;;;;4.47;3.20;;;17.10;80.80;;;;;;5073821;28;20220;-74
2023/05/31 06:14:32;;;;;;;11.00;3.60;;;17.20;81.00;;;;;;5073924;28;20174;-74
2023/05/31 06:16:57;;;;;;;4.00;2.67;;;17.30;81.60;;;;;;5073391;28;20455;-74
2023/05/31 06:19:23;;;;;;;5.27;2.70;;;17.50;80.80;;;;;;5073095;28;20189;-75
2023/05/31 06:21:49;;;;;;;4.93;2.83;;;17.50;80.20;;;;;;5073248;28;20182;-75
2023/05/31 06:24:14;;;;;;;3.80;2.43;;;17.70;80.30;;;;;;5055386;28;20162;-75
2023/05/31 06:26:40;;;;;;;5.80;2.70;;;17.80;79.90;;;;;;5073302;28;20405;-75
2023/05/31 06:29:06;;;;;;;3.90;2.40;;;17.90;80.10;;;;;;5073388;28;20569;-74
2023/05/31 06:31:32;;;;;;;8.20;3.03;;;18.20;80.00;;;;;;5073204;28;20188;-74
2023/05/31 06:33:59;;;;;;;5.80;3.77;;;18.20;79.10;;;;;;5072697;28;20507;-74
2023/05/31 06:36:24;;;;;;;6.83;2.90;;;18.10;79.40;;;;;;5073030;28;20404;-75
2023/05/31 06:38:50;;;;;;;4.83;2.50;;;18.20;79.00;;;;;;5073270;28;20445;-74
2023/05/31 06:41:15;;;;;;;4.20;2.90;;;18.30;78.70;;;;;;5072991;28;20527;-74
2023/05/31 06:43:41;;;;;;;4.23;2.87;;;18.20;78.80;;;;;;5073412;28;20636;-75
2023/05/31 06:46:09;;;;;;;4.10;2.97;;;18.30;78.90;;;;;;5055126;28;20166;-74
2023/05/31 06:48:34;;;;;;;4.75;3.00;;;18.30;78.40;;;;;;5072247;28;20405;-74
2023/05/31 06:51:00;;;;;;;5.00;2.83;;;18.40;79.20;;;;;;5073084;28;20539;-75
2023/05/31 06:53:26;;;;;;;4.90;2.33;;;18.40;78.70;;;;;;5073102;28;20684;-72
2023/05/31 06:55:51;;;;;;;4.07;2.50;;;18.50;78.60;;;;;;5071581;28;20250;-74
2023/05/31 06:58:17;;;;;;;4.83;2.67;;;18.60;78.00;;;;;;5054835;28;20173;-74
2023/05/31 07:00:42;;;;;;;4.50;2.60;;;18.70;78.20;;;;;;5073146;28;20233;-74
2023/05/31 07:03:08;;;;;;;4.90;2.40;;;18.80;77.60;;;;;;5070713;28;20232;-74
2023/05/31 07:05:34;;;;;;;6.97;3.20;;;18.90;78.20;;;;;;5054677;28;20174;-71
2023/05/31 07:08:00;;;;;;;4.67;3.13;;;19.00;77.00;;;;;;5072742;28;20304;-72
2023/05/31 07:10:27;;;;;;;5.67;3.00;;;18.90;77.70;;;;;;5072710;28;20443;-73
2023/05/31 07:12:53;;;;;;;3.63;2.33;;;18.90;77.40;;;;;;5072334;28;20201;-72
2023/05/31 07:15:19;;;;;;;7.00;2.63;;;19.20;78.20;;;;;;5072788;28;20401;-73
2023/05/31 07:17:45;;;;;;;3.50;2.70;;;19.30;76.40;;;;;;5072794;28;20417;-73
2023/05/31 07:20:11;;;;;;;5.20;2.90;;;19.40;77.50;;;;;;5072575;28;20185;-73
2023/05/31 07:22:37;;;;;;;3.97;2.43;;;19.40;76.40;;;;;;5072673;28;20444;-73
2023/05/31 07:25:04;;;;;;;2.70;2.50;;;19.50;76.50;;;;;;5072486;28;20816;-74
2023/05/31 07:27:31;;;;;;;5.30;3.10;;;19.30;76.90;;;;;;5072597;28;20439;-74
2023/05/31 07:29:56;;;;;;;7.00;3.13;;;19.50;77.00;;;;;;5078751;28;20922;-73
2023/05/31 07:32:22;;;;;;;5.43;2.73;;;19.70;77.20;;;;;;5054557;28;20463;-73
2023/05/31 07:34:48;;;;;;;6.30;3.40;;;19.80;76.40;;;;;;5072965;28;20166;-74
2023/05/31 07:37:13;;;;;;;5.07;2.30;;;19.90;76.50;;;;;;5072447;28;20174;-73
2023/05/31 07:39:39;;;;;;;5.17;2.90;;;20.10;76.50;;;;;;5072569;28;20205;-74
2023/05/31 07:42:05;;;;;;;5.37;3.00;;;20.20;75.50;;;;;;5072588;28;20233;-73
2023/05/31 07:44:31;;;;;;;6.17;2.90;;;20.20;74.90;;;;;;5074003;28;20219;-73
2023/05/31 07:46:56;;;;;;;4.60;2.93;;;20.20;75.10;;;;;;5075861;28;20803;-73
2023/05/31 07:49:22;;;;;;;7.00;3.20;;;20.30;75.20;;;;;;5076229;28;20166;-74
2023/05/31 07:51:47;;;;;;;4.33;2.73;;;20.40;74.50;;;;;;5077192;28;20691;-72
2023/05/31 07:54:13;;;;;;;5.10;3.43;;;20.30;75.40;;;;;;5073849;28;20223;-72
2023/05/31 07:56:40;;;;;;;3.83;2.63;;;20.30;75.70;;;;;;5073365;28;20631;-74
2023/05/31 07:59:06;;;;;;;3.90;2.93;;;20.40;74.70;;;;;;5072747;28;20186;-72
2023/05/31 08:01:32;;;;;;;6.43;2.70;;;20.50;74.20;;;;;;5071195;28;20403;-73
2023/05/31 08:04:06;;;;;;;5.63;2.87;;;20.70;74.10;;;;;;5071635;28;20487;-73
2023/05/31 08:06:32;;;;;;;6.10;2.73;;;20.60;73.50;;;;;;5072047;28;20296;-74
2023/05/31 08:08:58;;;;;;;7.30;3.33;;;20.70;73.90;;;;;;5072628;28;20412;-74
2023/05/31 08:11:25;;;;;;;5.03;3.33;;;20.60;73.10;;;;;;5056273;28;20528;-73
2023/05/31 08:13:51;;;;;;;3.80;2.50;;;20.70;73.40;;;;;;5051991;28;20409;-72
2023/05/31 08:16:17;;;;;;;5.17;2.93;;;20.70;72.40;;;;;;5052021;28;20806;-72
2023/05/31 08:18:43;;;;;;;6.60;3.30;;;20.70;72.70;;;;;;5053434;28;20293;-73
2023/05/31 08:21:09;;;;;;;7.83;2.87;;;20.80;72.60;;;;;;5055596;28;20461;-72
2023/05/31 08:23:34;;;;;;;4.43;3.00;;;20.90;72.30;;;;;;5055434;28;20170;-73
2023/05/31 08:26:00;;;;;;;4.60;2.80;;;20.80;72.80;;;;;;5037637;28;20194;-72
2023/05/31 08:28:26;;;;;;;6.77;3.63;;;21.00;72.10;;;;;;5055716;28;20169;-72
2023/05/31 08:30:52;;;;;;;5.43;3.10;;;21.00;72.20;;;;;;5055518;28;20195;-72
2023/05/31 08:33:17;;;;;;;7.90;3.20;;;21.00;71.60;;;;;;5055180;28;20436;-73
2023/05/31 08:35:43;;;;;;;4.27;2.87;;;21.00;72.60;;;;;;5055364;28;20178;-72
2023/05/31 08:38:09;;;;;;;4.50;3.40;;;21.10;72.50;;;;;;5055162;28;20220;-73
2023/05/31 08:40:35;;;;;;;6.90;3.47;;;21.20;71.40;;;;;;5065756;28;20201;-72
2023/05/31 08:43:06;;;;;;;10.27;2.90;;;21.20;71.50;;;;;;5075252;28;20261;-74
2023/05/31 08:45:34;;;;;;;5.33;3.77;;;21.30;71.30;;;;;;5075578;28;20180;-73
2023/05/31 08:48:09;;;;;;;4.73;3.33;;;21.30;71.10;;;;;;5074986;28;20408;-74
2023/05/31 08:50:35;;;;;;;5.37;3.40;;;21.40;71.30;;;;;;5075150;28;20404;-72
2023/05/31 08:53:02;;;;;;;5.40;3.43;;;21.30;70.80;;;;;;5075363;28;20408;-71
2023/05/31 08:55:29;;;;;;;4.37;3.13;;;21.40;71.80;;;;;;5074979;28;20227;-72
2023/05/31 08:57:56;;;;;;;3.83;3.03;;;21.70;70.40;;;;;;5074927;28;20938;-72
2023/05/31 09:00:22;;;;;;;7.10;3.07;;;21.70;70.70;;;;;;5074246;28;20579;-72
2023/05/31 09:02:49;;;;;;;5.00;3.23;;;21.80;70.10;;;;;;5074260;28;20476;-72
2023/05/31 09:05:14;;;;;;;3.63;3.00;;;21.80;70.90;;;;;;5074830;28;20883;-72
2023/05/31 09:07:40;;;;;;;3.43;2.93;;;21.80;70.70;;;;;;5056621;28;20397;-72
2023/05/31 09:10:08;;;;;;;6.23;2.80;;;22.00;69.90;;;;;;5067879;28;20252;-72
2023/05/31 09:12:35;;;;;;;4.80;3.33;;;22.00;69.10;;;;;;5054332;28;20221;-74
2023/05/31 09:15:00;;;;;;;6.93;3.23;;;22.00;69.50;;;;;;5054344;28;20409;-71
2023/05/31 09:17:26;;;;;;;4.43;2.97;;;22.00;69.50;;;;;;5054193;28;20892;-73
2023/05/31 09:19:54;;;;;;;5.23;3.20;;;22.30;70.10;;;;;;5054119;28;20224;-72
2023/05/31 09:22:22;;;;;;;4.43;3.27;;;22.60;68.40;;;;;;5036479;28;20198;-72
2023/05/31 09:24:59;;;;;;;4.30;2.80;;;22.50;67.80;;;;;;5054492;28;20489;-73
2023/05/31 09:27:26;;;;;;;6.40;3.53;;;22.50;67.80;;;;;;5054996;28;20389;-73
2023/05/31 09:29:56;;;;;;;5.23;2.70;;;22.70;70.00;;;;;;5036302;28;20417;-73
2023/05/31 09:32:22;;;;;;;5.90;3.03;;;22.90;67.70;;;;;;5054532;28;20479;-72
2023/05/31 09:34:47;;;;;;;5.30;2.80;;;23.00;66.60;;;;;;5054550;28;20411;-71
2023/05/31 09:37:24;;;;;;;4.87;2.80;;;22.90;66.00;;;;;;5054807;28;20499;-72
2023/05/31 09:39:57;;;;;;;9.90;3.30;;;23.10;67.20;;;;;;5058407;28;20272;-71
2023/05/31 09:42:29;;;;;;;5.80;3.20;;;23.10;65.00;;;;;;5073949;28;20447;-70
2023/05/31 09:44:55;;;;;;;4.73;2.90;;;23.20;64.50;;;;;;5073455;28;20415;-73
2023/05/31 09:47:27;;;;;;;5.30;3.20;;;23.20;64.10;;;;;;5073838;28;20413;-72
2023/05/31 09:49:54;;;;;;;4.63;2.77;;;23.30;63.60;;;;;;5073646;28;20170;-72
2023/05/31 09:52:28;;;;;;;4.72;2.88;;;23.50;63.60;;;;;;5073615;28;20414;-70
2023/05/31 09:54:56;;;;;;;4.50;2.90;;;23.40;62.10;;;;;;5073950;28;20223;-71
2023/05/31 09:57:32;;;;;;;6.20;2.80;;;23.40;63.50;;;;;;5073507;28;20412;-70
2023/05/31 10:00:01;;;;;;;6.83;3.00;;;23.40;61.20;;;;;;5073458;28;20451;-70
2023/05/31 10:02:27;;;;;;;6.40;3.00;;;23.30;60.60;;;;;;5073183;28;20839;-71
2023/05/31 10:04:56;;;;;;;4.60;2.90;;;23.30;59.90;;;;;;5072837;28;20450;-71
2023/05/31 10:07:22;;;;;;;5.33;2.73;;;23.50;60.30;;;;;;5073426;28;20933;-71
2023/05/31 10:09:48;;;;;;;6.60;2.60;;;23.70;59.90;;;;;;5073513;28;20485;-71
2023/05/31 10:12:17;;;;;;;3.10;2.80;;;23.70;60.10;;;;;;5073547;28;20914;-71
2023/05/31 10:14:48;;;;;;;3.70;2.80;;;23.70;60.50;;;;;;5073306;28;20184;-71
2023/05/31 10:17:20;;;;;;;4.77;2.50;;;23.60;59.80;;;;;;5073778;28;20434;-71
2023/05/31 10:19:54;;;;;;;8.90;3.10;;;23.60;60.40;;;;;;5072720;28;20468;-71
2023/05/31 10:22:20;;;;;;;4.47;3.17;;;23.70;59.40;;;;;;5073586;28;20444;-71
2023/05/31 10:24:48;;;;;;;6.43;2.87;;;23.80;58.40;;;;;;5073377;28;20419;-71
2023/05/31 10:27:28;;;;;;;5.07;3.63;;;23.70;57.90;;;;;;5073691;28;20420;-72
2023/05/31 10:29:56;;;;;;;3.13;2.60;;;23.70;58.40;;;;;;5073591;28;20416;-72
2023/05/31 10:32:26;;;;;;;3.93;2.30;;;23.90;58.60;;;;;;5073018;28;20432;-72
2023/05/31 10:34:53;;;;;;;4.47;2.37;;;24.00;57.70;;;;;;5054552;28;20434;-72
2023/05/31 10:37:20;;;;;;;3.50;2.70;;;23.90;57.60;;;;;;5072942;28;20491;-72
2023/05/31 10:39:58;;;;;;;2.97;2.57;;;23.80;57.80;;;;;;5073035;28;20451;-72
2023/05/31 10:42:48;;;;;;;5.83;2.70;;;23.90;57.70;;;;;;5072207;28;20452;-72
2023/05/31 10:45:51;;;;;;;4.03;2.67;;;24.20;56.80;;;;;;5072975;28;20413;-71
2023/05/31 10:48:39;;;;;;;5.07;3.17;;;24.20;57.10;;;;;;5030997;28;20408;-72
2023/05/31 10:51:06;;;;;;;5.47;2.60;;;24.20;56.60;;;;;;5073195;28;20887;-72
2023/05/31 10:53:37;;;;;;;7.83;3.07;;;24.30;57.10;;;;;;5072821;28;20457;-72
2023/05/31 10:56:04;;;;;;;3.50;2.60;;;24.30;56.50;;;;;;5072875;28;20792;-72
2023/05/31 10:58:53;;;;;;;3.17;2.73;;;24.10;56.80;;;;;;5072965;28;20400;-72
2023/05/31 11:01:20;;;;;;;5.40;2.77;;;24.00;56.60;;;;;;5073717;28;20475;-73
2023/05/31 11:03:50;;;;;;;4.53;2.70;;;24.20;56.90;;;;;;5073044;28;20515;-72
2023/05/31 11:06:17;;;;;;;2.80;2.10;;;24.20;56.00;;;;;;5074014;28;20404;-72
2023/05/31 11:09:11;;;;;;;3.80;2.80;;;24.20;57.20;;;;;;5072797;28;20404;-72
2023/05/31 11:11:39;;;;;;;5.70;2.93;;;24.60;56.40;;;;;;5072493;28;20824;-73
2023/05/31 11:14:06;;;;;;;3.80;2.23;;;24.60;55.80;;;;;;5100729;22;20575;-72
2023/05/31 11:16:45;;;;;;;5.27;2.73;;;24.60;56.10;;;;;;5092762;28;20391;-73
2023/05/31 11:19:19;;;;;;;6.60;2.63;;;24.60;55.50;;;;;;5091402;28;20439;-73
2023/05/31 11:21:49;;;;;;;5.18;2.60;;;24.60;54.90;;;;;;5091735;28;20424;-74
2023/05/31 11:24:28;;;;;;;5.33;2.30;;;24.90;55.10;;;;;;5092271;28;20182;-72
2023/05/31 11:26:55;;;;;;;3.23;2.50;;;25.40;55.10;;;;;;5074215;28;20414;-72
2023/05/31 11:29:20;;;;;;;3.20;2.90;;;27.00;51.90;;;;;;5092551;28;20411;-73
2023/05/31 11:31:55;;;;;;;4.60;2.80;;;28.00;50.80;;;;;;5092370;28;20873;-73
2023/05/31 11:34:23;;;;;;;4.53;2.70;;;29.20;48.20;;;;;;5091292;28;20176;-72
2023/05/31 11:36:50;;;;;;;3.17;2.40;;;28.30;47.10;;;;;;5091892;28;20395;-73
2023/05/31 11:39:17;;;;;;;6.90;2.70;;;29.30;47.10;;;;;;5092021;28;20443;-73
2023/05/31 11:41:43;;;;;;;3.00;2.50;;;29.00;45.60;;;;;;5071850;28;20423;-74
2023/05/31 11:44:11;;;;;;;4.10;2.63;;;28.40;46.90;;;;;;5071443;28;20424;-71
2023/05/31 11:46:41;;;;;;;3.87;2.83;;;29.90;46.30;;;;;;5071466;28;20400;-72
2023/05/31 11:49:11;;;;;;;3.73;2.60;;;31.10;44.80;;;;;;5053242;28;20760;-71
2023/05/31 11:51:38;;;;;;;3.60;2.73;;;32.00;42.90;;;;;;5054287;28;20507;-72
2023/05/31 11:54:04;;;;;;;3.07;2.60;;;30.60;42.20;;;;;;5075451;28;20424;-71
2023/05/31 11:56:32;;;;;;;5.22;2.92;;;29.30;44.90;;;;;;5074095;28;20406;-73
2023/05/31 11:58:58;;;;;;;3.87;2.03;;;29.20;44.00;;;;;;5075377;28;20186;-71
2023/05/31 12:01:24;;;;;;;4.57;2.30;;;29.90;44.00;;;;;;5075475;28;20446;-74
2023/05/31 12:03:59;;;;;;;3.83;2.83;;;31.40;42.50;;;;;;5075119;28;20793;-75
2023/05/31 12:06:26;;;;;;;3.10;2.30;;;31.00;42.00;;;;;;5074872;28;20407;-74
2023/05/31 12:08:52;;;;;;;4.43;2.63;;;30.30;43.20;;;;;;5057002;28;20415;-73
2023/05/31 12:11:18;;;;;;;4.57;2.03;;;31.40;44.00;;;;;;5074991;28;20400;-73
2023/05/31 12:13:44;;;;;;;6.20;2.30;;;31.80;40.90;;;;;;5074733;28;20836;-73
2023/05/31 12:16:10;;;;;;;3.43;2.30;;;30.70;41.50;;;;;;5074963;28;20471;-73
2023/05/31 12:18:36;;;;;;;3.50;2.67;;;30.50;42.90;;;;;;5056388;28;20261;-71
2023/05/31 12:21:15;;;;;;;4.53;2.20;;;31.20;40.90;;;;;;5074824;28;20158;-73
2023/05/31 12:23:57;;;;;;;4.03;2.40;;;30.10;42.10;;;;;;5075487;28;20385;-74
2023/05/31 12:26:26;;;;;;;3.67;2.20;;;31.10;40.70;;;;;;5077251;28;20435;-76
2023/05/31 12:28:52;;;;;;;5.10;2.43;;;31.20;40.30;;;;;;5076854;28;20503;-75
2023/05/31 12:31:25;;;;;;;2.83;2.20;;;31.70;39.70;;;;;;5075434;28;20404;-73
2023/05/31 12:33:56;;;;;;;3.27;2.30;;;32.10;40.40;;;;;;5074075;28;20648;-74
2023/05/31 12:36:22;;;;;;;3.60;2.40;;;32.70;38.70;;;;;;5074921;28;20397;-73
2023/05/31 12:38:53;;;;;;;3.30;2.00;;;33.10;37.40;;;;;;5056741;28;20411;-73
2023/05/31 12:41:19;;;;;;;3.53;2.20;;;32.80;36.90;;;;;;5074497;28;20547;-72
2023/05/31 12:43:45;;;;;;;2.80;2.03;;;32.10;37.10;;;;;;5074498;28;20836;-71
2023/05/31 12:46:16;;;;;;;5.27;2.40;;;32.10;37.10;;;;;;5074934;28;20400;-73
2023/05/31 12:48:48;;;;;;;4.10;2.07;;;32.00;37.00;;;;;;5074182;28;20199;-72